createdAt,value
2022-08-24T00:02:12.010Z,20.70
2022-08-24T00:12:16.499Z,20.50
2022-08-24T00:22:20.824Z,20.70
2022-08-24T00:32:22.962Z,20.60
2022-08-24T00:42:25.363Z,20.30
2022-08-24T00:52:38.925Z,20.40
2022-08-24T01:02:44.897Z,20.10
2022-08-24T01:13:01.165Z,19.90
2022-08-24T01:23:19.703Z,19.90
2022-08-24T01:33:31.900Z,19.60
2022-08-24T01:43:35.206Z,19.60
2022-08-24T01:53:41.858Z,19.30
2022-08-24T02:03:44.062Z,19.20
2022-08-24T02:13:46.358Z,19.10
2022-08-24T02:23:48.474Z,19.00
2022-08-24T02:33:50.755Z,19.00
2022-08-24T02:43:52.757Z,18.90
2022-08-24T02:53:55.333Z,18.70
2022-08-24T03:03:59.654Z,18.70
2022-08-24T03:14:02.276Z,18.50
2022-08-24T03:24:04.154Z,18.20
2022-08-24T03:34:09.172Z,18.10
2022-08-24T03:44:11.354Z,18.00
2022-08-24T03:54:14.801Z,18.00
2022-08-24T04:04:16.954Z,17.90
2022-08-24T04:14:26.862Z,17.70
2022-08-24T04:24:37.716Z,17.70
2022-08-24T04:34:39.654Z,17.70
2022-08-24T04:44:42.130Z,17.50
2022-08-24T04:54:44.213Z,17.50
2022-08-24T05:04:52.678Z,17.60
2022-08-24T05:14:56.739Z,17.60
2022-08-24T05:24:59.077Z,17.80
2022-08-24T05:35:03.623Z,17.80
2022-08-24T05:45:09.176Z,18.30
2022-08-24T05:55:12.359Z,18.30
2022-08-24T06:05:16.336Z,18.30
2022-08-24T06:15:19.795Z,18.60
2022-08-24T06:25:58.335Z,18.70
2022-08-24T06:36:02.517Z,19.10
2022-08-24T06:46:08.469Z,19.20
2022-08-24T06:56:17.677Z,19.50
2022-08-24T07:06:26.557Z,20.20
2022-08-24T07:16:34.759Z,20.80
2022-08-24T07:26:39.024Z,21.50
2022-08-24T07:36:44.813Z,21.90
2022-08-24T07:46:48.146Z,22.20
2022-08-24T07:56:52.720Z,22.60
2022-08-24T08:06:58.264Z,23.00
2022-08-24T08:17:04.994Z,23.70
2022-08-24T08:27:07.717Z,24.00
2022-08-24T08:37:17.357Z,24.50
2022-08-24T08:47:47.307Z,25.20
2022-08-24T08:58:26.139Z,25.90
2022-08-24T09:08:52.138Z,26.60
2022-08-24T09:19:14.596Z,27.30
2022-08-24T09:29:27.520Z,27.70
2022-08-24T09:39:48.168Z,27.90
2022-08-24T09:49:50.519Z,28.70
2022-08-24T10:00:19.218Z,29.20
2022-08-24T10:10:46.178Z,29.80
2022-08-24T10:21:03.175Z,30.20
2022-08-24T10:31:14.110Z,30.80
2022-08-24T10:42:10.682Z,31.40
2022-08-24T10:52:16.713Z,32.40
2022-08-24T11:02:43.469Z,32.20
2022-08-24T11:12:45.980Z,32.20
2022-08-24T11:23:08.875Z,32.40
2022-08-24T11:33:30.342Z,32.90
2022-08-24T11:43:50.657Z,33.30
2022-08-24T11:54:27.092Z,33.50
2022-08-24T12:04:43.737Z,33.70
2022-08-24T12:15:19.100Z,34.40
2022-08-24T12:25:44.920Z,34.60
2022-08-24T12:36:01.836Z,34.50
2022-08-24T12:46:05.016Z,34.70
2022-08-24T12:56:37.497Z,34.90
2022-08-24T13:07:09.835Z,35.20
2022-08-24T13:17:15.096Z,34.90
2022-08-24T13:27:17.755Z,35.40
2022-08-24T13:37:26.318Z,35.50
2022-08-24T13:47:56.294Z,35.70
2022-08-24T13:58:13.678Z,35.30
2022-08-24T14:08:48.874Z,35.10
2022-08-24T14:19:34.239Z,35.20
2022-08-24T14:29:47.074Z,34.50
2022-08-24T14:40:25.229Z,34.40
2022-08-24T14:51:07.357Z,34.90
2022-08-24T15:01:19.325Z,34.90
2022-08-24T15:11:30.175Z,34.80
2022-08-24T15:22:02.119Z,34.70
2022-08-24T15:32:10.554Z,34.80
2022-08-24T15:42:17.317Z,34.70
2022-08-24T15:52:46.277Z,34.00
2022-08-24T16:02:48.924Z,33.80
2022-08-24T16:12:54.317Z,33.70
2022-08-24T16:23:03.856Z,33.20
2022-08-24T16:33:06.340Z,33.30
2022-08-24T16:43:08.177Z,33.10
2022-08-24T16:53:10.095Z,32.80
2022-08-24T17:03:15.094Z,32.60
2022-08-24T17:13:39.273Z,32.10
2022-08-24T17:23:43.195Z,31.90
2022-08-24T17:33:44.998Z,31.10
2022-08-24T17:43:47.737Z,30.70
2022-08-24T17:53:49.836Z,30.20
2022-08-24T18:03:52.542Z,29.90
2022-08-24T18:13:57.018Z,29.50
2022-08-24T18:24:00.218Z,29.10
2022-08-24T18:34:02.774Z,28.80
2022-08-24T18:44:04.624Z,28.30
2022-08-24T18:54:18.360Z,27.70
2022-08-24T19:04:22.071Z,27.20
2022-08-24T19:14:33.679Z,26.70
2022-08-24T19:24:38.134Z,26.20
2022-08-24T19:34:40.579Z,25.80
2022-08-24T19:45:04.511Z,25.60
2022-08-24T19:55:08.351Z,25.50
2022-08-24T20:05:10.774Z,25.20
2022-08-24T20:15:13.413Z,25.10
2022-08-24T20:25:15.652Z,24.90
2022-08-24T20:35:18.096Z,24.90
2022-08-24T20:45:20.079Z,24.80
2022-08-24T20:55:23.617Z,24.60
2022-08-24T21:05:26.623Z,24.50
2022-08-24T21:15:29.095Z,24.40
2022-08-24T21:25:31.457Z,24.30
2022-08-24T21:35:33.894Z,24.20
2022-08-24T21:45:36.078Z,24.20
2022-08-24T21:55:38.594Z,24.10
2022-08-24T22:05:40.833Z,23.90
2022-08-24T22:15:43.920Z,23.80
2022-08-24T22:25:46.277Z,23.80
2022-08-24T22:35:48.255Z,23.70
2022-08-24T22:45:53.076Z,23.60
2022-08-24T22:55:56.836Z,23.50
2022-08-24T23:05:58.476Z,23.20
2022-08-24T23:16:01.380Z,23.20
2022-08-24T23:26:07.755Z,23.10
2022-08-24T23:36:23.699Z,23.20
2022-08-24T23:46:27.565Z,23.00
2022-08-24T23:56:37.654Z,22.90
